sensor_id;sensor_type;location;lat;lon;timestamp;temperature;humidity
3564;DHT22;1796;52.388;13.096;2023-05-27T00:01:58;9.60;99.90
3564;DHT22;1796;52.388;13.096;2023-05-27T00:04:25;9.60;99.90
3564;DHT22;1796;52.388;13.096;2023-05-27T00:06:52;9.50;99.90
3564;DHT22;1796;52.388;13.096;2023-05-27T00:09:20;9.40;99.90
3564;DHT22;1796;52.388;13.096;2023-05-27T00:11:47;9.40;99.90
3564;DHT22;1796;52.388;13.096;2023-05-27T00:14:14;9.40;99.90
3564;DHT22;1796;52.388;13.096;2023-05-27T00:16:42;9.20;99.90
3564;DHT22;1796;52.388;13.096;2023-05-27T00:19:09;9.10;99.90
3564;DHT22;1796;52.388;13.096;2023-05-27T00:21:37;9.00;99.90
3564;DHT22;1796;52.388;13.096;2023-05-27T00:24:04;8.90;99.90
3564;DHT22;1796;52.388;13.096;2023-05-27T00:26:32;8.80;99.90
3564;DHT22;1796;52.388;13.096;2023-05-27T00:28:59;8.80;99.90
3564;DHT22;1796;52.388;13.096;2023-05-27T00:31:26;8.80;99.90
3564;DHT22;1796;52.388;13.096;2023-05-27T00:33:53;8.70;99.90
3564;DHT22;1796;52.388;13.096;2023-05-27T00:36:21;8.70;99.90
3564;DHT22;1796;52.388;13.096;2023-05-27T00:38:47;8.60;99.90
3564;DHT22;1796;52.388;13.096;2023-05-27T00:41:14;8.50;99.90
3564;DHT22;1796;52.388;13.096;2023-05-27T00:43:42;8.40;99.90
3564;DHT22;1796;52.388;13.096;2023-05-27T00:46:09;8.40;99.90
3564;DHT22;1796;52.388;13.096;2023-05-27T00:48:36;8.30;99.90
3564;DHT22;1796;52.388;13.096;2023-05-27T00:51:03;8.30;99.90
3564;DHT22;1796;52.388;13.096;2023-05-27T00:53:35;8.20;99.90
3564;DHT22;1796;52.388;13.096;2023-05-27T00:56:03;8.20;99.90
3564;DHT22;1796;52.388;13.096;2023-05-27T00:58:30;8.10;99.90
3564;DHT22;1796;52.388;13.096;2023-05-27T01:00:59;8.10;99.90
3564;DHT22;1796;52.388;13.096;2023-05-27T01:03:26;8.00;99.90
3564;DHT22;1796;52.388;13.096;2023-05-27T01:05:59;8.00;99.90
3564;DHT22;1796;52.388;13.096;2023-05-27T01:08:35;8.00;99.90
3564;DHT22;1796;52.388;13.096;2023-05-27T01:11:06;7.90;99.90
3564;DHT22;1796;52.388;13.096;2023-05-27T01:13:36;7.80;99.90
3564;DHT22;1796;52.388;13.096;2023-05-27T01:16:11;7.80;99.90
3564;DHT22;1796;52.388;13.096;2023-05-27T01:18:39;7.70;99.90
3564;DHT22;1796;52.388;13.096;2023-05-27T01:21:11;7.70;99.90
3564;DHT22;1796;52.388;13.096;2023-05-27T01:23:41;7.60;99.90
3564;DHT22;1796;52.388;13.096;2023-05-27T01:26:08;7.60;99.90
3564;DHT22;1796;52.388;13.096;2023-05-27T01:28:36;7.60;99.90
3564;DHT22;1796;52.388;13.096;2023-05-27T01:31:08;7.50;99.90
3564;DHT22;1796;52.388;13.096;2023-05-27T01:33:38;7.50;99.90
3564;DHT22;1796;52.388;13.096;2023-05-27T01:36:10;7.40;99.90
3564;DHT22;1796;52.388;13.096;2023-05-27T01:38:43;7.40;99.90
3564;DHT22;1796;52.388;13.096;2023-05-27T01:41:10;7.30;99.90
3564;DHT22;1796;52.388;13.096;2023-05-27T01:43:39;7.30;99.90
3564;DHT22;1796;52.388;13.096;2023-05-27T01:46:06;7.30;99.90
3564;DHT22;1796;52.388;13.096;2023-05-27T01:48:33;7.30;99.90
3564;DHT22;1796;52.388;13.096;2023-05-27T01:51:00;7.30;99.90
3564;DHT22;1796;52.388;13.096;2023-05-27T01:53:27;7.30;99.90
3564;DHT22;1796;52.388;13.096;2023-05-27T01:55:55;7.40;99.90
3564;DHT22;1796;52.388;13.096;2023-05-27T01:58:22;7.30;99.90
3564;DHT22;1796;52.388;13.096;2023-05-27T02:00:48;7.30;99.90
3564;DHT22;1796;52.388;13.096;2023-05-27T02:03:15;7.30;99.90
3564;DHT22;1796;52.388;13.096;2023-05-27T02:05:42;7.20;99.90
3564;DHT22;1796;52.388;13.096;2023-05-27T02:08:10;7.20;99.90
3564;DHT22;1796;52.388;13.096;2023-05-27T02:10:37;7.10;99.90
3564;DHT22;1796;52.388;13.096;2023-05-27T02:13:05;7.00;99.90
3564;DHT22;1796;52.388;13.096;2023-05-27T02:15:32;7.00;99.90
3564;DHT22;1796;52.388;13.096;2023-05-27T02:17:59;7.00;99.90
3564;DHT22;1796;52.388;13.096;2023-05-27T02:20:26;7.00;99.90
3564;DHT22;1796;52.388;13.096;2023-05-27T02:22:54;7.00;99.90
3564;DHT22;1796;52.388;13.096;2023-05-27T02:25:21;6.90;99.90
3564;DHT22;1796;52.388;13.096;2023-05-27T02:27:48;6.90;99.90
3564;DHT22;1796;52.388;13.096;2023-05-27T02:30:19;6.90;99.90
3564;DHT22;1796;52.388;13.096;2023-05-27T02:32:45;6.80;99.90
3564;DHT22;1796;52.388;13.096;2023-05-27T02:35:13;6.80;99.90
3564;DHT22;1796;52.388;13.096;2023-05-27T02:37:41;6.70;99.90
3564;DHT22;1796;52.388;13.096;2023-05-27T02:40:08;6.70;99.90
3564;DHT22;1796;52.388;13.096;2023-05-27T02:42:36;6.70;99.90
3564;DHT22;1796;52.388;13.096;2023-05-27T02:45:04;6.60;99.90
3564;DHT22;1796;52.388;13.096;2023-05-27T02:47:32;6.60;99.90
3564;DHT22;1796;52.388;13.096;2023-05-27T02:49:59;6.60;99.90
3564;DHT22;1796;52.388;13.096;2023-05-27T02:52:26;6.50;99.90
3564;DHT22;1796;52.388;13.096;2023-05-27T02:54:53;6.50;99.90
3564;DHT22;1796;52.388;13.096;2023-05-27T02:57:20;6.50;99.90
3564;DHT22;1796;52.388;13.096;2023-05-27T02:59:47;6.50;99.90
3564;DHT22;1796;52.388;13.096;2023-05-27T03:02:14;6.60;99.90
3564;DHT22;1796;52.388;13.096;2023-05-27T03:04:42;6.60;99.90
3564;DHT22;1796;52.388;13.096;2023-05-27T03:07:09;6.60;99.90
3564;DHT22;1796;52.388;13.096;2023-05-27T03:09:36;6.50;99.90
3564;DHT22;1796;52.388;13.096;2023-05-27T03:12:03;6.60;99.90
3564;DHT22;1796;52.388;13.096;2023-05-27T03:14:30;6.60;99.90
3564;DHT22;1796;52.388;13.096;2023-05-27T03:16:57;6.60;99.90
3564;DHT22;1796;52.388;13.096;2023-05-27T03:19:24;6.60;99.90
3564;DHT22;1796;52.388;13.096;2023-05-27T03:21:52;6.70;99.90
3564;DHT22;1796;52.388;13.096;2023-05-27T03:24:19;6.70;99.90
3564;DHT22;1796;52.388;13.096;2023-05-27T03:26:46;6.80;99.90
3564;DHT22;1796;52.388;13.096;2023-05-27T03:29:13;6.80;99.90
3564;DHT22;1796;52.388;13.096;2023-05-27T03:31:41;6.90;99.90
3564;DHT22;1796;52.388;13.096;2023-05-27T03:34:08;6.90;99.90
3564;DHT22;1796;52.388;13.096;2023-05-27T03:36:35;7.00;99.90
3564;DHT22;1796;52.388;13.096;2023-05-27T03:39:04;7.10;99.90
3564;DHT22;1796;52.388;13.096;2023-05-27T03:41:31;7.40;99.90
3564;DHT22;1796;52.388;13.096;2023-05-27T03:43:58;7.80;99.90
3564;DHT22;1796;52.388;13.096;2023-05-27T03:46:25;8.10;99.90
3564;DHT22;1796;52.388;13.096;2023-05-27T03:48:52;8.40;99.90
3564;DHT22;1796;52.388;13.096;2023-05-27T03:51:20;8.70;99.90
3564;DHT22;1796;52.388;13.096;2023-05-27T03:53:47;9.10;99.90
3564;DHT22;1796;52.388;13.096;2023-05-27T03:56:15;9.30;99.90
3564;DHT22;1796;52.388;13.096;2023-05-27T03:58:42;9.50;99.90
3564;DHT22;1796;52.388;13.096;2023-05-27T04:01:09;9.70;99.90
3564;DHT22;1796;52.388;13.096;2023-05-27T04:03:36;10.00;99.90
3564;DHT22;1796;52.388;13.096;2023-05-27T04:06:05;10.40;99.90
3564;DHT22;1796;52.388;13.096;2023-05-27T04:08:32;10.70;99.90
3564;DHT22;1796;52.388;13.096;2023-05-27T04:11:01;11.00;99.90
3564;DHT22;1796;52.388;13.096;2023-05-27T04:13:29;11.40;99.90
3564;DHT22;1796;52.388;13.096;2023-05-27T04:15:56;11.40;99.90
3564;DHT22;1796;52.388;13.096;2023-05-27T04:18:24;11.50;99.90
3564;DHT22;1796;52.388;13.096;2023-05-27T04:20:51;11.80;99.90
3564;DHT22;1796;52.388;13.096;2023-05-27T04:23:18;12.10;99.90
3564;DHT22;1796;52.388;13.096;2023-05-27T04:25:45;12.20;99.90
3564;DHT22;1796;52.388;13.096;2023-05-27T04:28:14;12.70;99.90
3564;DHT22;1796;52.388;13.096;2023-05-27T04:30:43;12.80;99.90
3564;DHT22;1796;52.388;13.096;2023-05-27T04:33:11;13.00;99.90
3564;DHT22;1796;52.388;13.096;2023-05-27T04:35:38;13.30;99.90
3564;DHT22;1796;52.388;13.096;2023-05-27T04:38:06;13.40;99.90
3564;DHT22;1796;52.388;13.096;2023-05-27T04:40:33;13.60;99.90
3564;DHT22;1796;52.388;13.096;2023-05-27T04:43:01;13.60;99.90
3564;DHT22;1796;52.388;13.096;2023-05-27T04:45:27;13.70;99.90
3564;DHT22;1796;52.388;13.096;2023-05-27T04:47:56;14.10;99.90
3564;DHT22;1796;52.388;13.096;2023-05-27T04:50:23;14.50;99.90
3564;DHT22;1796;52.388;13.096;2023-05-27T04:52:50;14.70;99.90
3564;DHT22;1796;52.388;13.096;2023-05-27T04:55:18;15.10;99.90
3564;DHT22;1796;52.388;13.096;2023-05-27T04:57:45;15.20;99.90
3564;DHT22;1796;52.388;13.096;2023-05-27T05:00:13;15.10;99.90
3564;DHT22;1796;52.388;13.096;2023-05-27T05:03:03;15.00;99.90
3564;DHT22;1796;52.388;13.096;2023-05-27T05:05:31;15.40;99.90
3564;DHT22;1796;52.388;13.096;2023-05-27T05:07:58;15.40;99.90
3564;DHT22;1796;52.388;13.096;2023-05-27T05:10:25;15.40;99.90
3564;DHT22;1796;52.388;13.096;2023-05-27T05:12:52;15.70;99.90
3564;DHT22;1796;52.388;13.096;2023-05-27T05:15:19;15.80;99.90
3564;DHT22;1796;52.388;13.096;2023-05-27T05:17:46;16.10;99.90
3564;DHT22;1796;52.388;13.096;2023-05-27T05:20:14;16.20;99.90
3564;DHT22;1796;52.388;13.096;2023-05-27T05:22:41;16.40;99.90
3564;DHT22;1796;52.388;13.096;2023-05-27T05:25:08;16.50;99.90
3564;DHT22;1796;52.388;13.096;2023-05-27T05:27:35;16.80;99.90
3564;DHT22;1796;52.388;13.096;2023-05-27T05:30:04;17.10;99.90
3564;DHT22;1796;52.388;13.096;2023-05-27T05:32:31;17.30;99.90
3564;DHT22;1796;52.388;13.096;2023-05-27T05:34:58;17.10;99.90
3564;DHT22;1796;52.388;13.096;2023-05-27T05:37:26;17.20;99.90
3564;DHT22;1796;52.388;13.096;2023-05-27T05:39:54;17.50;99.90
3564;DHT22;1796;52.388;13.096;2023-05-27T05:42:22;17.90;99.90
3564;DHT22;1796;52.388;13.096;2023-05-27T05:44:51;18.10;99.90
3564;DHT22;1796;52.388;13.096;2023-05-27T05:47:18;18.30;99.90
3564;DHT22;1796;52.388;13.096;2023-05-27T05:49:44;18.60;99.90
3564;DHT22;1796;52.388;13.096;2023-05-27T05:52:11;18.70;99.90
3564;DHT22;1796;52.388;13.096;2023-05-27T05:54:39;18.90;99.90
3564;DHT22;1796;52.388;13.096;2023-05-27T05:57:06;19.00;99.90
3564;DHT22;1796;52.388;13.096;2023-05-27T05:59:33;18.90;99.90
3564;DHT22;1796;52.388;13.096;2023-05-27T06:02:00;18.90;99.90
3564;DHT22;1796;52.388;13.096;2023-05-27T06:04:27;19.50;99.90
3564;DHT22;1796;52.388;13.096;2023-05-27T06:06:54;19.60;99.90
3564;DHT22;1796;52.388;13.096;2023-05-27T06:09:21;19.90;99.90
3564;DHT22;1796;52.388;13.096;2023-05-27T06:11:50;20.00;99.90
3564;DHT22;1796;52.388;13.096;2023-05-27T06:14:17;19.90;99.90
3564;DHT22;1796;52.388;13.096;2023-05-27T06:16:43;19.70;99.90
3564;DHT22;1796;52.388;13.096;2023-05-27T06:19:10;20.20;99.90
3564;DHT22;1796;52.388;13.096;2023-05-27T06:21:37;20.40;99.90
3564;DHT22;1796;52.388;13.096;2023-05-27T06:24:04;20.30;99.90
3564;DHT22;1796;52.388;13.096;2023-05-27T06:26:31;20.00;99.90
3564;DHT22;1796;52.388;13.096;2023-05-27T06:28:59;19.80;99.90
3564;DHT22;1796;52.388;13.096;2023-05-27T06:31:26;19.00;99.90
3564;DHT22;1796;52.388;13.096;2023-05-27T06:33:53;18.60;99.90
3564;DHT22;1796;52.388;13.096;2023-05-27T06:36:20;19.00;99.90
3564;DHT22;1796;52.388;13.096;2023-05-27T06:38:48;19.60;99.90
3564;DHT22;1796;52.388;13.096;2023-05-27T06:41:15;20.00;99.90
3564;DHT22;1796;52.388;13.096;2023-05-27T06:43:42;20.00;99.90
3564;DHT22;1796;52.388;13.096;2023-05-27T06:46:10;20.20;99.90
3564;DHT22;1796;52.388;13.096;2023-05-27T06:48:37;20.80;99.90
3564;DHT22;1796;52.388;13.096;2023-05-27T06:51:05;21.90;99.90
3564;DHT22;1796;52.388;13.096;2023-05-27T06:53:32;22.50;99.90
3564;DHT22;1796;52.388;13.096;2023-05-27T06:56:13;22.30;99.90
3564;DHT22;1796;52.388;13.096;2023-05-27T06:58:40;23.20;99.90
3564;DHT22;1796;52.388;13.096;2023-05-27T07:01:07;23.60;99.90
3564;DHT22;1796;52.388;13.096;2023-05-27T07:03:35;23.60;99.90
3564;DHT22;1796;52.388;13.096;2023-05-27T07:06:02;22.40;99.90
3564;DHT22;1796;52.388;13.096;2023-05-27T07:08:29;22.10;99.90
3564;DHT22;1796;52.388;13.096;2023-05-27T07:10:56;23.10;97.50
3564;DHT22;1796;52.388;13.096;2023-05-27T07:13:23;23.20;95.10
3564;DHT22;1796;52.388;13.096;2023-05-27T07:15:50;23.40;93.70
3564;DHT22;1796;52.388;13.096;2023-05-27T07:18:17;23.30;92.00
3564;DHT22;1796;52.388;13.096;2023-05-27T07:20:45;22.40;91.10
3564;DHT22;1796;52.388;13.096;2023-05-27T07:23:12;22.80;92.00
3564;DHT22;1796;52.388;13.096;2023-05-27T07:25:39;24.00;92.40
3564;DHT22;1796;52.388;13.096;2023-05-27T07:28:06;25.00;91.10
3564;DHT22;1796;52.388;13.096;2023-05-27T07:30:33;25.00;84.80
3564;DHT22;1796;52.388;13.096;2023-05-27T07:32:59;24.80;82.50
3564;DHT22;1796;52.388;13.096;2023-05-27T07:35:26;24.60;78.80
3564;DHT22;1796;52.388;13.096;2023-05-27T07:37:55;24.90;76.10
3564;DHT22;1796;52.388;13.096;2023-05-27T07:40:21;24.20;76.30
3564;DHT22;1796;52.388;13.096;2023-05-27T07:42:48;23.70;76.90
3564;DHT22;1796;52.388;13.096;2023-05-27T07:45:15;23.10;77.00
3564;DHT22;1796;52.388;13.096;2023-05-27T07:47:42;22.70;81.10
3564;DHT22;1796;52.388;13.096;2023-05-27T07:50:10;22.80;80.20
3564;DHT22;1796;52.388;13.096;2023-05-27T07:52:39;23.50;79.60
3564;DHT22;1796;52.388;13.096;2023-05-27T07:55:08;23.50;78.60
3564;DHT22;1796;52.388;13.096;2023-05-27T07:57:35;23.20;80.20
3564;DHT22;1796;52.388;13.096;2023-05-27T08:00:02;22.50;81.10
3564;DHT22;1796;52.388;13.096;2023-05-27T08:02:31;23.90;80.80
3564;DHT22;1796;52.388;13.096;2023-05-27T08:04:58;25.20;80.20
3564;DHT22;1796;52.388;13.096;2023-05-27T08:07:25;24.00;77.60
3564;DHT22;1796;52.388;13.096;2023-05-27T08:09:51;24.50;78.20
3564;DHT22;1796;52.388;13.096;2023-05-27T08:12:20;24.90;77.10
3564;DHT22;1796;52.388;13.096;2023-05-27T08:14:47;25.00;75.30
3564;DHT22;1796;52.388;13.096;2023-05-27T08:17:14;25.40;72.60
3564;DHT22;1796;52.388;13.096;2023-05-27T08:19:41;25.00;72.70
3564;DHT22;1796;52.388;13.096;2023-05-27T08:22:08;24.70;73.90
3564;DHT22;1796;52.388;13.096;2023-05-27T08:24:35;22.80;71.30
3564;DHT22;1796;52.388;13.096;2023-05-27T08:27:13;23.20;71.40
3564;DHT22;1796;52.388;13.096;2023-05-27T08:29:42;24.60;70.60
3564;DHT22;1796;52.388;13.096;2023-05-27T08:32:09;25.20;69.90
3564;DHT22;1796;52.388;13.096;2023-05-27T08:34:36;23.50;68.40
3564;DHT22;1796;52.388;13.096;2023-05-27T08:37:03;23.30;70.50
3564;DHT22;1796;52.388;13.096;2023-05-27T08:39:31;23.50;67.30
3564;DHT22;1796;52.388;13.096;2023-05-27T08:41:58;24.00;67.80
3564;DHT22;1796;52.388;13.096;2023-05-27T08:44:26;23.20;67.00
3564;DHT22;1796;52.388;13.096;2023-05-27T08:46:55;23.40;66.40
3564;DHT22;1796;52.388;13.096;2023-05-27T08:49:23;22.80;67.30
3564;DHT22;1796;52.388;13.096;2023-05-27T08:51:50;22.80;68.20
3564;DHT22;1796;52.388;13.096;2023-05-27T08:54:18;22.20;68.40
3564;DHT22;1796;52.388;13.096;2023-05-27T08:56:45;21.20;67.50
3564;DHT22;1796;52.388;13.096;2023-05-27T08:59:13;20.30;68.30
3564;DHT22;1796;52.388;13.096;2023-05-27T09:01:48;19.90;68.90
3564;DHT22;1796;52.388;13.096;2023-05-27T09:04:16;19.60;70.70
3564;DHT22;1796;52.388;13.096;2023-05-27T09:06:43;19.70;70.70
3564;DHT22;1796;52.388;13.096;2023-05-27T09:09:10;19.90;71.10
3564;DHT22;1796;52.388;13.096;2023-05-27T09:11:39;20.00;71.40
3564;DHT22;1796;52.388;13.096;2023-05-27T09:14:06;19.50;69.60
3564;DHT22;1796;52.388;13.096;2023-05-27T09:16:33;18.90;69.20
3564;DHT22;1796;52.388;13.096;2023-05-27T09:19:00;18.40;69.30
3564;DHT22;1796;52.388;13.096;2023-05-27T09:21:28;18.50;69.60
3564;DHT22;1796;52.388;13.096;2023-05-27T09:23:56;18.50;70.40
3564;DHT22;1796;52.388;13.096;2023-05-27T09:26:23;18.50;69.00
3564;DHT22;1796;52.388;13.096;2023-05-27T09:28:50;18.70;69.80
3564;DHT22;1796;52.388;13.096;2023-05-27T09:31:17;18.70;68.60
3564;DHT22;1796;52.388;13.096;2023-05-27T09:33:44;18.60;68.30
3564;DHT22;1796;52.388;13.096;2023-05-27T09:36:12;18.50;69.90
3564;DHT22;1796;52.388;13.096;2023-05-27T09:38:40;18.50;69.80
3564;DHT22;1796;52.388;13.096;2023-05-27T09:41:07;18.70;69.50
3564;DHT22;1796;52.388;13.096;2023-05-27T09:43:34;18.50;67.70
3564;DHT22;1796;52.388;13.096;2023-05-27T09:46:02;18.40;68.00
3564;DHT22;1796;52.388;13.096;2023-05-27T09:48:30;18.40;68.00
3564;DHT22;1796;52.388;13.096;2023-05-27T09:50:58;18.20;68.70
3564;DHT22;1796;52.388;13.096;2023-05-27T09:53:26;18.40;68.10
3564;DHT22;1796;52.388;13.096;2023-05-27T09:55:55;18.10;67.40
3564;DHT22;1796;52.388;13.096;2023-05-27T09:58:23;18.00;68.10
3564;DHT22;1796;52.388;13.096;2023-05-27T10:00:51;18.20;67.10
3564;DHT22;1796;52.388;13.096;2023-05-27T10:03:20;18.20;67.40
3564;DHT22;1796;52.388;13.096;2023-05-27T10:05:49;18.10;67.00
3564;DHT22;1796;52.388;13.096;2023-05-27T10:08:16;18.00;68.40
3564;DHT22;1796;52.388;13.096;2023-05-27T10:10:44;17.80;67.10
3564;DHT22;1796;52.388;13.096;2023-05-27T10:13:13;17.80;67.60
3564;DHT22;1796;52.388;13.096;2023-05-27T10:15:46;17.90;67.10
3564;DHT22;1796;52.388;13.096;2023-05-27T10:18:22;18.20;67.60
3564;DHT22;1796;52.388;13.096;2023-05-27T10:20:49;18.40;67.20
3564;DHT22;1796;52.388;13.096;2023-05-27T10:23:18;18.30;65.30
3564;DHT22;1796;52.388;13.096;2023-05-27T10:25:47;18.20;65.80
3564;DHT22;1796;52.388;13.096;2023-05-27T10:28:29;18.40;67.00
3564;DHT22;1796;52.388;13.096;2023-05-27T10:31:07;18.40;66.20
3564;DHT22;1796;52.388;13.096;2023-05-27T10:33:35;18.30;66.00
3564;DHT22;1796;52.388;13.096;2023-05-27T10:36:10;18.30;66.20
3564;DHT22;1796;52.388;13.096;2023-05-27T10:38:38;18.50;66.00
3564;DHT22;1796;52.388;13.096;2023-05-27T10:41:06;18.60;66.70
3564;DHT22;1796;52.388;13.096;2023-05-27T10:43:35;18.60;67.00
3564;DHT22;1796;52.388;13.096;2023-05-27T10:46:03;18.80;66.30
3564;DHT22;1796;52.388;13.096;2023-05-27T10:48:31;18.90;66.30
3564;DHT22;1796;52.388;13.096;2023-05-27T10:50:58;18.70;67.00
3564;DHT22;1796;52.388;13.096;2023-05-27T10:53:26;18.70;66.90
3564;DHT22;1796;52.388;13.096;2023-05-27T10:55:53;18.80;67.00
3564;DHT22;1796;52.388;13.096;2023-05-27T10:58:21;18.90;67.90
3564;DHT22;1796;52.388;13.096;2023-05-27T11:00:51;19.20;68.00
3564;DHT22;1796;52.388;13.096;2023-05-27T11:03:19;19.10;67.00
3564;DHT22;1796;52.388;13.096;2023-05-27T11:05:56;18.90;67.00
3564;DHT22;1796;52.388;13.096;2023-05-27T11:08:23;19.00;66.40
3564;DHT22;1796;52.388;13.096;2023-05-27T11:10:50;18.90;65.10
3564;DHT22;1796;52.388;13.096;2023-05-27T11:13:17;18.70;65.60
3564;DHT22;1796;52.388;13.096;2023-05-27T11:15:44;18.80;67.10
3564;DHT22;1796;52.388;13.096;2023-05-27T11:18:12;18.90;68.60
3564;DHT22;1796;52.388;13.096;2023-05-27T11:20:41;19.20;68.00
3564;DHT22;1796;52.388;13.096;2023-05-27T11:23:07;19.10;68.10
3564;DHT22;1796;52.388;13.096;2023-05-27T11:25:42;19.10;68.10
3564;DHT22;1796;52.388;13.096;2023-05-27T11:28:16;18.90;66.00
3564;DHT22;1796;52.388;13.096;2023-05-27T11:30:43;18.90;66.70
3564;DHT22;1796;52.388;13.096;2023-05-27T11:33:11;19.00;66.70
3564;DHT22;1796;52.388;13.096;2023-05-27T11:35:39;19.10;67.20
3564;DHT22;1796;52.388;13.096;2023-05-27T11:38:16;19.10;68.30
3564;DHT22;1796;52.388;13.096;2023-05-27T11:40:43;19.20;68.50
3564;DHT22;1796;52.388;13.096;2023-05-27T11:43:16;19.10;68.40
3564;DHT22;1796;52.388;13.096;2023-05-27T11:45:43;19.10;68.60
3564;DHT22;1796;52.388;13.096;2023-05-27T11:48:11;19.20;68.90
3564;DHT22;1796;52.388;13.096;2023-05-27T11:50:38;19.20;68.10
3564;DHT22;1796;52.388;13.096;2023-05-27T11:53:05;19.10;68.00
3564;DHT22;1796;52.388;13.096;2023-05-27T11:55:32;19.20;69.00
3564;DHT22;1796;52.388;13.096;2023-05-27T11:57:59;19.20;68.40
3564;DHT22;1796;52.388;13.096;2023-05-27T12:00:26;19.30;68.80
3564;DHT22;1796;52.388;13.096;2023-05-27T12:02:53;19.30;67.70
3564;DHT22;1796;52.388;13.096;2023-05-27T12:05:21;19.00;66.80
3564;DHT22;1796;52.388;13.096;2023-05-27T12:07:51;19.20;66.90
3564;DHT22;1796;52.388;13.096;2023-05-27T12:10:18;19.30;66.60
3564;DHT22;1796;52.388;13.096;2023-05-27T12:12:45;19.30;66.40
3564;DHT22;1796;52.388;13.096;2023-05-27T12:15:12;19.40;67.00
3564;DHT22;1796;52.388;13.096;2023-05-27T12:17:38;19.60;66.30
3564;DHT22;1796;52.388;13.096;2023-05-27T12:20:06;19.40;65.90
3564;DHT22;1796;52.388;13.096;2023-05-27T12:22:35;19.30;65.80
3564;DHT22;1796;52.388;13.096;2023-05-27T12:25:02;19.40;65.20
3564;DHT22;1796;52.388;13.096;2023-05-27T12:27:30;19.50;64.90
3564;DHT22;1796;52.388;13.096;2023-05-27T12:29:57;19.50;66.60
3564;DHT22;1796;52.388;13.096;2023-05-27T12:32:23;19.50;66.70
3564;DHT22;1796;52.388;13.096;2023-05-27T12:34:50;19.70;66.60
3564;DHT22;1796;52.388;13.096;2023-05-27T12:37:17;19.80;65.90
3564;DHT22;1796;52.388;13.096;2023-05-27T12:39:45;19.70;65.40
3564;DHT22;1796;52.388;13.096;2023-05-27T12:42:12;19.80;65.20
3564;DHT22;1796;52.388;13.096;2023-05-27T12:44:40;19.80;66.30
3564;DHT22;1796;52.388;13.096;2023-05-27T12:47:07;19.70;66.60
3564;DHT22;1796;52.388;13.096;2023-05-27T12:49:35;19.90;66.20
3564;DHT22;1796;52.388;13.096;2023-05-27T12:52:02;19.80;66.30
3564;DHT22;1796;52.388;13.096;2023-05-27T12:54:30;19.90;66.80
3564;DHT22;1796;52.388;13.096;2023-05-27T12:56:58;19.90;66.10
3564;DHT22;1796;52.388;13.096;2023-05-27T12:59:27;19.80;67.00
3564;DHT22;1796;52.388;13.096;2023-05-27T13:01:54;20.00;66.70
3564;DHT22;1796;52.388;13.096;2023-05-27T13:04:21;19.90;66.80
3564;DHT22;1796;52.388;13.096;2023-05-27T13:06:48;19.70;65.60
3564;DHT22;1796;52.388;13.096;2023-05-27T13:09:15;19.80;66.40
3564;DHT22;1796;52.388;13.096;2023-05-27T13:11:42;19.80;66.90
3564;DHT22;1796;52.388;13.096;2023-05-27T13:14:10;19.90;66.60
3564;DHT22;1796;52.388;13.096;2023-05-27T13:16:37;20.10;66.30
3564;DHT22;1796;52.388;13.096;2023-05-27T13:19:04;20.20;67.10
3564;DHT22;1796;52.388;13.096;2023-05-27T13:21:31;20.50;67.00
3564;DHT22;1796;52.388;13.096;2023-05-27T13:23:58;20.40;65.70
3564;DHT22;1796;52.388;13.096;2023-05-27T13:26:26;20.20;66.40
3564;DHT22;1796;52.388;13.096;2023-05-27T13:28:54;20.10;65.80
3564;DHT22;1796;52.388;13.096;2023-05-27T13:31:23;20.20;66.10
3564;DHT22;1796;52.388;13.096;2023-05-27T13:33:49;20.30;66.30
3564;DHT22;1796;52.388;13.096;2023-05-27T13:36:16;20.30;66.40
3564;DHT22;1796;52.388;13.096;2023-05-27T13:38:43;20.40;65.20
3564;DHT22;1796;52.388;13.096;2023-05-27T13:41:10;20.30;65.60
3564;DHT22;1796;52.388;13.096;2023-05-27T13:43:37;20.30;65.20
3564;DHT22;1796;52.388;13.096;2023-05-27T13:46:04;20.50;65.90
3564;DHT22;1796;52.388;13.096;2023-05-27T13:48:32;20.50;65.30
3564;DHT22;1796;52.388;13.096;2023-05-27T13:50:59;20.60;65.30
3564;DHT22;1796;52.388;13.096;2023-05-27T13:53:26;20.70;65.40
3564;DHT22;1796;52.388;13.096;2023-05-27T13:55:53;20.70;64.40
3564;DHT22;1796;52.388;13.096;2023-05-27T13:58:20;20.60;63.90
3564;DHT22;1796;52.388;13.096;2023-05-27T14:00:47;20.60;64.50
3564;DHT22;1796;52.388;13.096;2023-05-27T14:03:14;20.60;64.60
3564;DHT22;1796;52.388;13.096;2023-05-27T14:05:42;20.50;64.40
3564;DHT22;1796;52.388;13.096;2023-05-27T14:08:09;20.30;64.40
3564;DHT22;1796;52.388;13.096;2023-05-27T14:10:36;20.40;65.20
3564;DHT22;1796;52.388;13.096;2023-05-27T14:13:03;20.60;65.20
3564;DHT22;1796;52.388;13.096;2023-05-27T14:15:30;20.80;66.00
3564;DHT22;1796;52.388;13.096;2023-05-27T14:17:57;20.90;65.70
3564;DHT22;1796;52.388;13.096;2023-05-27T14:20:26;20.90;65.80
3564;DHT22;1796;52.388;13.096;2023-05-27T14:22:54;20.90;65.90
3564;DHT22;1796;52.388;13.096;2023-05-27T14:25:21;20.90;66.10
3564;DHT22;1796;52.388;13.096;2023-05-27T14:27:49;20.90;66.40
3564;DHT22;1796;52.388;13.096;2023-05-27T14:30:16;20.90;66.20
3564;DHT22;1796;52.388;13.096;2023-05-27T14:32:44;21.00;67.10
3564;DHT22;1796;52.388;13.096;2023-05-27T14:35:11;21.00;66.50
3564;DHT22;1796;52.388;13.096;2023-05-27T14:37:38;21.00;67.10
3564;DHT22;1796;52.388;13.096;2023-05-27T14:40:07;21.00;67.20
3564;DHT22;1796;52.388;13.096;2023-05-27T14:42:34;21.10;66.30
3564;DHT22;1796;52.388;13.096;2023-05-27T14:45:01;21.10;67.10
3564;DHT22;1796;52.388;13.096;2023-05-27T14:47:28;21.20;67.50
3564;DHT22;1796;52.388;13.096;2023-05-27T14:49:55;21.30;67.80
3564;DHT22;1796;52.388;13.096;2023-05-27T14:52:22;21.30;68.50
3564;DHT22;1796;52.388;13.096;2023-05-27T14:54:49;21.20;67.80
3564;DHT22;1796;52.388;13.096;2023-05-27T14:57:17;21.10;67.50
3564;DHT22;1796;52.388;13.096;2023-05-27T14:59:44;21.10;68.30
3564;DHT22;1796;52.388;13.096;2023-05-27T15:02:11;21.10;68.50
3564;DHT22;1796;52.388;13.096;2023-05-27T15:04:38;21.00;67.10
3564;DHT22;1796;52.388;13.096;2023-05-27T15:07:05;20.80;67.60
3564;DHT22;1796;52.388;13.096;2023-05-27T15:09:32;21.00;68.10
3564;DHT22;1796;52.388;13.096;2023-05-27T15:11:59;21.10;66.60
3564;DHT22;1796;52.388;13.096;2023-05-27T15:14:27;21.10;66.60
3564;DHT22;1796;52.388;13.096;2023-05-27T15:16:54;21.10;65.80
3564;DHT22;1796;52.388;13.096;2023-05-27T15:19:21;21.10;66.50
3564;DHT22;1796;52.388;13.096;2023-05-27T15:21:48;21.00;66.40
3564;DHT22;1796;52.388;13.096;2023-05-27T15:24:15;20.90;66.30
3564;DHT22;1796;52.388;13.096;2023-05-27T15:26:42;21.00;65.80
3564;DHT22;1796;52.388;13.096;2023-05-27T15:29:11;21.00;66.90
3564;DHT22;1796;52.388;13.096;2023-05-27T15:31:39;21.00;67.20
3564;DHT22;1796;52.388;13.096;2023-05-27T15:34:07;20.80;66.90
3564;DHT22;1796;52.388;13.096;2023-05-27T15:36:34;20.80;67.30
3564;DHT22;1796;52.388;13.096;2023-05-27T15:39:01;20.80;66.80
3564;DHT22;1796;52.388;13.096;2023-05-27T15:41:28;20.90;67.00
3564;DHT22;1796;52.388;13.096;2023-05-27T15:43:55;20.90;66.70
3564;DHT22;1796;52.388;13.096;2023-05-27T15:46:22;21.00;67.10
3564;DHT22;1796;52.388;13.096;2023-05-27T15:48:50;20.90;67.00
3564;DHT22;1796;52.388;13.096;2023-05-27T15:51:17;20.90;66.60
3564;DHT22;1796;52.388;13.096;2023-05-27T15:53:44;21.00;66.60